createdAt,value
2022-09-11T00:01:54.029Z,31.05
2022-09-11T00:04:23.354Z,31.20
2022-09-11T00:06:52.609Z,31.11
2022-09-11T00:09:22.590Z,31.05
2022-09-11T00:11:51.625Z,31.04
2022-09-11T00:14:21.925Z,31.21
2022-09-11T00:16:51.224Z,31.07
2022-09-11T00:19:23.362Z,31.20
2022-09-11T00:21:52.775Z,31.09
2022-09-11T00:24:21.812Z,31.07
2022-09-11T00:26:51.824Z,31.10
2022-09-11T00:29:21.235Z,30.99
2022-09-11T00:31:50.627Z,30.84
2022-09-11T00:34:20.494Z,31.01
2022-09-11T00:36:49.754Z,30.97
2022-09-11T00:39:19.225Z,30.88
2022-09-11T00:41:48.570Z,30.89
2022-09-11T00:44:20.853Z,30.91
2022-09-11T00:46:54.464Z,30.91
2022-09-11T00:49:33.660Z,30.79
2022-09-11T00:52:31.564Z,30.88
2022-09-11T00:55:10.300Z,30.95
2022-09-11T00:57:50.768Z,31.07
2022-09-11T01:00:21.079Z,31.03
2022-09-11T01:02:53.293Z,31.09
2022-09-11T01:05:25.033Z,31.10
2022-09-11T01:07:57.449Z,31.20
2022-09-11T01:10:57.349Z,31.08
2022-09-11T01:13:39.797Z,31.09
2022-09-11T01:16:21.088Z,31.09
2022-09-11T01:19:38.799Z,31.06
2022-09-11T01:22:46.496Z,31.18
2022-09-11T01:25:33.057Z,31.28
2022-09-11T01:28:10.812Z,31.08
2022-09-11T01:30:48.634Z,31.14
2022-09-11T01:33:41.900Z,31.09
2022-09-11T01:36:42.066Z,31.45
2022-09-11T01:39:12.908Z,31.38
2022-09-11T01:41:54.257Z,31.41
2022-09-11T01:44:45.708Z,31.44
2022-09-11T01:47:17.620Z,31.45
2022-09-11T01:50:22.912Z,31.48
2022-09-11T01:53:01.734Z,31.65
2022-09-11T01:55:56.796Z,31.83
2022-09-11T01:58:31.913Z,31.80
2022-09-11T02:01:08.557Z,31.61
2022-09-11T02:04:09.036Z,31.82
2022-09-11T02:06:47.516Z,31.88
2022-09-11T02:09:23.296Z,31.77
2022-09-11T02:11:57.374Z,31.85
2022-09-11T02:14:26.186Z,32.01
2022-09-11T02:17:17.385Z,32.08
2022-09-11T02:19:46.825Z,32.03
2022-09-11T02:22:15.885Z,32.01
2022-09-11T02:24:45.846Z,32.08
2022-09-11T02:27:23.803Z,32.09
2022-09-11T02:29:55.466Z,32.14
2022-09-11T02:32:26.839Z,32.24
2022-09-11T02:34:58.170Z,32.24
2022-09-11T02:37:40.656Z,32.33
2022-09-11T02:40:42.669Z,32.37
2022-09-11T02:43:28.623Z,32.50
2022-09-11T02:46:28.450Z,32.56
2022-09-11T02:49:16.035Z,32.51
2022-09-11T02:51:57.266Z,32.58
2022-09-11T02:55:03.217Z,32.78
2022-09-11T02:58:09.530Z,32.84
2022-09-11T03:00:41.780Z,32.70
2022-09-11T03:03:11.229Z,32.74
2022-09-11T03:05:41.428Z,32.85
2022-09-11T03:08:11.688Z,32.79
2022-09-11T03:10:41.464Z,32.86
2022-09-11T03:13:15.135Z,32.85
2022-09-11T03:15:46.790Z,33.03
2022-09-11T03:18:17.008Z,33.08
2022-09-11T03:20:48.523Z,33.26
2022-09-11T03:23:19.256Z,33.29
2022-09-11T03:25:48.739Z,33.30
2022-09-11T03:28:18.410Z,33.33
2022-09-11T03:30:48.354Z,33.14
2022-09-11T03:33:21.098Z,33.35
2022-09-11T03:35:50.761Z,33.47
2022-09-11T03:38:21.819Z,33.62
2022-09-11T03:40:51.830Z,33.73
2022-09-11T03:43:20.631Z,33.63
2022-09-11T03:45:53.916Z,33.88
2022-09-11T03:48:23.310Z,33.86
2022-09-11T03:50:52.831Z,33.85
2022-09-11T03:53:22.938Z,33.98
2022-09-11T03:55:52.023Z,34.07
2022-09-11T03:58:21.502Z,34.20
2022-09-11T04:00:50.791Z,34.17
2022-09-11T04:03:20.308Z,34.15
2022-09-11T04:06:10.162Z,34.33
2022-09-11T04:08:42.209Z,34.29
2022-09-11T04:11:13.686Z,34.12
2022-09-11T04:13:44.629Z,34.26
2022-09-11T04:16:18.965Z,34.38
2022-09-11T04:18:54.619Z,34.40
2022-09-11T04:21:25.667Z,34.59
2022-09-11T04:23:58.828Z,34.73
2022-09-11T04:26:32.179Z,34.67
2022-09-11T04:29:11.381Z,34.56
2022-09-11T04:31:42.429Z,34.58
2022-09-11T04:34:14.715Z,34.55
2022-09-11T04:36:44.825Z,34.57
2022-09-11T04:39:19.704Z,34.79
2022-09-11T04:41:50.682Z,34.85
2022-09-11T04:44:21.881Z,34.83
2022-09-11T04:46:51.621Z,34.90
2022-09-11T04:49:21.960Z,35.00
2022-09-11T04:51:51.561Z,34.90
2022-09-11T04:54:25.342Z,35.07
2022-09-11T04:56:55.931Z,35.27
2022-09-11T04:59:25.820Z,35.20
2022-09-11T05:02:04.643Z,35.38
2022-09-11T05:04:37.515Z,35.33
2022-09-11T05:07:07.384Z,35.43
2022-09-11T05:09:37.095Z,35.45
2022-09-11T05:12:07.364Z,35.70
2022-09-11T05:14:39.149Z,35.82
2022-09-11T05:17:08.923Z,35.90
2022-09-11T05:19:42.519Z,35.98
2022-09-11T05:22:11.974Z,36.12
2022-09-11T05:24:46.456Z,35.83
2022-09-11T05:27:16.346Z,35.74
2022-09-11T05:29:46.892Z,35.82
2022-09-11T05:32:17.485Z,35.34
2022-09-11T05:34:47.253Z,35.56
2022-09-11T05:37:18.759Z,35.93
2022-09-11T05:39:49.877Z,36.08
2022-09-11T05:42:23.191Z,35.74
2022-09-11T05:44:56.279Z,35.98
2022-09-11T05:47:27.746Z,36.25
2022-09-11T05:49:58.017Z,35.88
2022-09-11T05:52:31.762Z,36.23
2022-09-11T05:55:01.167Z,35.94
2022-09-11T05:57:32.307Z,36.12
2022-09-11T06:00:02.155Z,36.06
2022-09-11T06:02:34.588Z,35.39
2022-09-11T06:05:04.309Z,36.26
2022-09-11T06:07:36.685Z,36.36
2022-09-11T06:10:06.036Z,36.45
2022-09-11T06:12:35.541Z,36.48
2022-09-11T06:15:05.275Z,36.51
2022-09-11T06:17:34.436Z,36.70
2022-09-11T06:20:03.464Z,36.76
2022-09-11T06:22:34.769Z,36.94
2022-09-11T06:25:04.344Z,36.90
2022-09-11T06:27:33.785Z,36.91
2022-09-11T06:30:03.278Z,37.05
2022-09-11T06:32:37.847Z,37.06
2022-09-11T06:35:08.607Z,37.05
2022-09-11T06:37:38.248Z,36.95
2022-09-11T06:40:09.767Z,37.28
2022-09-11T06:42:39.474Z,37.44
2022-09-11T06:45:10.089Z,37.11
2022-09-11T06:47:40.075Z,37.44
2022-09-11T06:50:09.909Z,37.48
2022-09-11T06:53:00.018Z,37.50
2022-09-11T06:55:32.837Z,37.48
2022-09-11T06:58:10.070Z,37.49
2022-09-11T07:00:39.901Z,37.58
2022-09-11T07:03:11.195Z,37.56
2022-09-11T07:05:47.200Z,37.66
2022-09-11T07:08:19.805Z,37.76
2022-09-11T07:10:53.047Z,37.87
2022-09-11T07:13:25.525Z,37.92
2022-09-11T07:16:06.260Z,37.81
2022-09-11T07:18:40.886Z,37.26
2022-09-11T07:21:17.696Z,37.50
2022-09-11T07:23:50.796Z,37.92
2022-09-11T07:26:20.703Z,38.06
2022-09-11T07:28:52.696Z,38.09
2022-09-11T07:31:24.718Z,37.62
2022-09-11T07:33:55.014Z,37.91
2022-09-11T07:36:28.143Z,38.06
2022-09-11T07:38:57.621Z,38.25
2022-09-11T07:41:34.759Z,37.70
2022-09-11T07:44:11.605Z,37.80
2022-09-11T07:46:42.450Z,38.13
2022-09-11T07:49:14.423Z,38.17
2022-09-11T07:51:45.414Z,38.38
2022-09-11T07:54:18.147Z,38.44
2022-09-11T07:56:47.587Z,38.02
2022-09-11T07:59:19.465Z,37.60
2022-09-11T08:01:54.650Z,34.91
2022-09-11T08:04:24.500Z,32.26
2022-09-11T08:06:54.344Z,32.05
2022-09-11T08:09:29.706Z,31.03
2022-09-11T08:12:02.282Z,30.76
2022-09-11T08:14:33.366Z,30.86
2022-09-11T08:17:10.549Z,30.21
2022-09-11T08:19:41.948Z,30.15
2022-09-11T08:22:12.929Z,29.42
2022-09-11T08:24:46.159Z,29.30
2022-09-11T08:27:18.837Z,28.59
2022-09-11T08:29:49.088Z,27.79
2022-09-11T08:32:19.523Z,27.60
2022-09-11T08:34:49.817Z,27.15
2022-09-11T08:37:19.246Z,27.04
2022-09-11T08:39:50.184Z,26.66
2022-09-11T08:42:19.584Z,26.86
2022-09-11T08:45:00.233Z,27.13
2022-09-11T08:47:50.807Z,27.19
2022-09-11T08:50:28.821Z,26.94
2022-09-11T08:53:02.634Z,27.13
2022-09-11T08:55:42.956Z,27.00
2022-09-11T08:58:19.317Z,27.06
2022-09-11T09:01:15.722Z,27.57
2022-09-11T09:04:42.723Z,27.39
2022-09-11T09:07:34.803Z,27.29
2022-09-11T09:10:33.967Z,27.24
2022-09-11T09:13:16.597Z,27.53
2022-09-11T09:16:10.930Z,27.57
2022-09-11T09:18:52.350Z,27.40
2022-09-11T09:21:39.724Z,27.59
2022-09-11T09:24:23.046Z,27.51
2022-09-11T09:26:57.553Z,27.82
2022-09-11T09:29:29.766Z,27.70
2022-09-11T09:32:05.706Z,27.49
2022-09-11T09:34:39.962Z,27.74
2022-09-11T09:37:21.646Z,27.95
2022-09-11T09:39:52.505Z,28.21
2022-09-11T09:42:52.855Z,28.20
2022-09-11T09:45:44.365Z,27.86
2022-09-11T09:48:14.151Z,27.55
2022-09-11T09:50:48.021Z,27.98
2022-09-11T09:53:45.082Z,28.35
2022-09-11T09:56:19.107Z,28.26
2022-09-11T09:59:03.668Z,28.42
2022-09-11T10:01:52.658Z,27.98
2022-09-11T10:04:31.506Z,28.19
2022-09-11T10:07:12.814Z,28.44
2022-09-11T10:09:47.897Z,28.67
2022-09-11T10:12:29.256Z,28.43
2022-09-11T10:15:01.549Z,28.69
2022-09-11T10:17:30.887Z,28.72
2022-09-11T10:20:20.749Z,28.90
2022-09-11T10:22:54.243Z,28.44
2022-09-11T10:25:31.321Z,28.70
2022-09-11T10:28:10.409Z,28.89
2022-09-11T10:30:42.734Z,28.83
2022-09-11T10:33:33.035Z,28.99
2022-09-11T10:36:05.799Z,28.94
2022-09-11T10:38:41.449Z,29.12
2022-09-11T10:41:24.159Z,29.23
2022-09-11T10:44:05.694Z,29.06
2022-09-11T10:46:41.427Z,29.27
2022-09-11T10:49:23.344Z,29.62
2022-09-11T10:52:11.417Z,29.65
2022-09-11T10:54:45.937Z,29.59
2022-09-11T10:57:44.805Z,29.85
2022-09-11T11:00:24.059Z,29.57
2022-09-11T11:02:57.675Z,29.77
2022-09-11T11:05:50.692Z,30.06
2022-09-11T11:08:51.893Z,30.12
2022-09-11T11:11:42.396Z,30.07
2022-09-11T11:14:33.190Z,30.33
2022-09-11T11:17:24.164Z,30.11
2022-09-11T11:20:08.903Z,30.23
2022-09-11T11:22:59.989Z,30.28
2022-09-11T11:25:49.767Z,30.44
2022-09-11T11:28:26.128Z,30.57
2022-09-11T11:31:13.179Z,30.58
2022-09-11T11:33:52.755Z,30.34
2022-09-11T11:36:34.174Z,30.02
2022-09-11T11:39:21.963Z,30.40
2022-09-11T11:42:16.860Z,30.50
2022-09-11T11:44:55.830Z,30.52
2022-09-11T11:47:31.177Z,30.51
2022-09-11T11:50:09.864Z,30.19
2022-09-11T11:53:11.071Z,30.43
2022-09-11T11:56:13.470Z,30.51
2022-09-11T11:58:56.864Z,30.16
2022-09-11T12:01:40.238Z,30.07
2022-09-11T12:04:39.729Z,30.16
2022-09-11T12:07:20.753Z,30.35
2022-09-11T12:09:52.414Z,30.18
2022-09-11T12:12:25.102Z,30.12
2022-09-11T12:15:04.339Z,30.08
2022-09-11T12:17:37.962Z,29.99
2022-09-11T12:20:13.496Z,30.15
2022-09-11T12:22:51.379Z,30.17
2022-09-11T12:25:20.614Z,30.01
2022-09-11T12:27:57.241Z,29.90
2022-09-11T12:30:29.725Z,30.05
2022-09-11T12:33:02.535Z,30.00
2022-09-11T12:35:31.246Z,30.03
2022-09-11T12:38:15.659Z,29.72
2022-09-11T12:40:57.380Z,30.00
2022-09-11T12:43:39.345Z,29.70
2022-09-11T12:46:15.063Z,29.60
2022-09-11T12:49:00.289Z,29.72
2022-09-11T12:51:44.177Z,29.77
2022-09-11T12:54:28.809Z,29.90
2022-09-11T12:57:06.922Z,29.46
2022-09-11T12:59:42.992Z,29.55
2022-09-11T14:50:21.158Z,28.25
2022-09-11T14:52:51.040Z,28.39
2022-09-11T14:55:21.836Z,28.51
2022-09-11T14:57:51.446Z,28.47
2022-09-11T15:00:21.693Z,28.47
2022-09-11T15:02:51.517Z,28.36
2022-09-11T15:05:24.143Z,28.50
2022-09-11T15:07:54.288Z,28.66
2022-09-11T15:10:24.211Z,28.43
2022-09-11T15:12:53.560Z,28.44
2022-09-11T15:15:28.894Z,28.45
2022-09-11T15:17:59.040Z,28.36
2022-09-11T15:20:28.863Z,28.42
2022-09-11T15:22:58.596Z,28.37
2022-09-11T15:25:28.011Z,28.44
2022-09-11T15:27:58.074Z,28.42
2022-09-11T15:30:28.825Z,28.34
2022-09-11T15:32:58.566Z,28.45
2022-09-11T15:35:32.711Z,28.46
2022-09-11T15:38:02.728Z,28.42
2022-09-11T15:40:31.822Z,28.40
2022-09-11T15:43:01.428Z,28.47
2022-09-11T15:45:31.365Z,28.48
2022-09-11T15:48:01.270Z,28.57
2022-09-11T15:50:31.413Z,28.56
2022-09-11T15:53:00.973Z,28.52
2022-09-11T15:55:31.517Z,28.51
2022-09-11T15:58:02.104Z,28.59
2022-09-11T16:00:31.585Z,28.54
2022-09-11T16:03:00.766Z,28.36
2022-09-11T16:05:32.369Z,28.38
2022-09-11T16:08:02.571Z,28.40
2022-09-11T16:10:32.422Z,28.45
2022-09-11T16:13:03.092Z,28.43
2022-09-11T16:15:35.084Z,28.60
2022-09-11T16:18:09.530Z,28.39
2022-09-11T16:20:42.755Z,28.43
2022-09-11T16:23:13.712Z,28.48
2022-09-11T16:25:44.229Z,28.41
2022-09-11T16:28:15.562Z,28.26
2022-09-11T16:30:49.483Z,28.35
2022-09-11T16:33:21.376Z,28.39
2022-09-11T16:36:07.994Z,28.47
2022-09-11T16:38:44.787Z,28.42
2022-09-11T16:41:31.027Z,28.37
2022-09-11T16:44:02.241Z,28.37
2022-09-11T16:46:35.565Z,28.46
2022-09-11T16:49:07.247Z,28.54
2022-09-11T16:51:37.102Z,28.33
2022-09-11T16:54:07.296Z,28.27
2022-09-11T16:56:36.992Z,28.18
2022-09-11T16:59:09.286Z,28.27
2022-09-11T17:01:41.931Z,28.41
2022-09-11T17:04:13.056Z,28.42
2022-09-11T17:06:42.682Z,28.32
2022-09-11T17:09:12.706Z,28.39
2022-09-11T17:11:43.047Z,28.33
2022-09-11T17:14:13.699Z,28.23
2022-09-11T17:16:43.114Z,28.19
2022-09-11T17:19:15.261Z,28.24
2022-09-11T17:21:49.247Z,28.31
2022-09-11T17:24:23.485Z,28.37
2022-09-11T17:26:55.166Z,28.43
2022-09-11T17:29:25.127Z,28.22
2022-09-11T17:32:23.702Z,28.42
2022-09-11T17:34:49.062Z,28.39
2022-09-11T17:37:19.156Z,28.40
2022-09-11T17:39:48.612Z,28.32
2022-09-11T17:42:19.060Z,28.24
2022-09-11T17:44:49.178Z,28.25
2022-09-11T17:47:19.193Z,28.31
2022-09-11T17:49:48.311Z,28.12
2022-09-11T17:52:20.458Z,27.93
2022-09-11T17:54:50.267Z,27.84
2022-09-11T17:57:19.950Z,28.12
2022-09-11T17:59:52.569Z,28.17
2022-09-11T18:02:22.673Z,28.01
2022-09-11T18:04:52.138Z,28.15
2022-09-11T18:07:21.997Z,27.94
2022-09-11T18:09:56.556Z,27.78
2022-09-11T18:12:28.118Z,27.89
2022-09-11T18:15:00.388Z,27.82
2022-09-11T18:17:31.550Z,27.77
2022-09-11T18:20:01.547Z,27.65
2022-09-11T18:22:31.329Z,27.71
2022-09-11T18:25:00.880Z,27.54
2022-09-11T18:27:29.904Z,27.65
2022-09-11T18:29:59.904Z,27.83
2022-09-11T18:32:29.999Z,27.92
2022-09-11T18:35:00.324Z,27.97
2022-09-11T18:37:29.411Z,27.93
2022-09-11T18:40:00.000Z,27.76
2022-09-11T18:42:30.041Z,27.83
2022-09-11T18:45:00.072Z,27.63
2022-09-11T18:47:31.980Z,27.79
2022-09-11T18:50:01.951Z,27.89
2022-09-11T18:52:32.625Z,27.86
2022-09-11T18:55:02.301Z,27.82
2022-09-11T18:57:31.578Z,27.80
2022-09-11T19:00:01.384Z,27.79
2022-09-11T19:02:32.403Z,27.86
2022-09-11T19:05:02.632Z,27.81
2022-09-11T19:07:33.328Z,27.82
2022-09-11T19:10:02.617Z,27.74
2022-09-11T19:12:31.845Z,27.70
2022-09-11T19:15:02.024Z,27.72
2022-09-11T19:17:31.127Z,27.47
2022-09-11T19:20:00.646Z,27.72
2022-09-11T19:22:31.484Z,27.63
2022-09-11T19:25:00.821Z,27.62
2022-09-11T19:27:32.793Z,27.70
2022-09-11T19:30:01.905Z,27.74
2022-09-11T19:32:32.538Z,27.67
2022-09-11T19:35:01.977Z,27.68
2022-09-11T19:37:30.931Z,27.60
2022-09-11T19:40:01.928Z,27.77
2022-09-11T19:42:32.335Z,27.67
2022-09-11T19:45:02.340Z,27.69
2022-09-11T19:47:31.329Z,27.80
2022-09-11T19:50:00.750Z,27.79
2022-09-11T19:52:33.037Z,27.76
2022-09-11T19:55:02.864Z,27.75
2022-09-11T19:57:32.819Z,27.75
2022-09-11T20:00:01.747Z,27.74
2022-09-11T20:02:33.984Z,27.70
2022-09-11T20:05:03.360Z,27.66
2022-09-11T20:07:32.963Z,27.52
2022-09-11T20:10:01.980Z,27.56
2022-09-11T20:12:38.089Z,27.54
2022-09-11T20:15:08.817Z,27.47
2022-09-11T20:17:38.219Z,27.50
2022-09-11T20:20:08.630Z,27.62
2022-09-11T20:22:38.193Z,27.71
2022-09-11T20:25:07.553Z,27.71
2022-09-11T20:27:37.532Z,27.56
2022-09-11T20:30:07.239Z,27.71
2022-09-11T20:32:40.328Z,27.77
2022-09-11T20:35:10.825Z,27.73
2022-09-11T20:37:40.348Z,27.52
2022-09-11T20:40:10.475Z,27.74
2022-09-11T20:42:41.146Z,27.76
2022-09-11T20:45:10.697Z,27.70
2022-09-11T20:47:40.792Z,27.64
2022-09-11T20:50:11.191Z,27.59
2022-09-11T20:52:40.293Z,27.44
2022-09-11T20:55:10.108Z,27.40
2022-09-11T20:57:39.588Z,27.21
2022-09-11T21:00:10.176Z,27.14
2022-09-11T21:02:39.258Z,27.43
2022-09-11T21:05:08.427Z,27.55
2022-09-11T21:07:37.744Z,27.21
2022-09-11T21:10:07.354Z,27.37
2022-09-11T21:12:37.214Z,27.38
2022-09-11T21:15:08.809Z,27.18
2022-09-11T21:17:38.793Z,27.50
2022-09-11T21:20:08.909Z,27.50
2022-09-11T21:22:38.513Z,27.54
2022-09-11T21:25:08.397Z,27.27
2022-09-11T21:27:37.721Z,27.41
2022-09-11T21:30:08.290Z,27.42
2022-09-11T21:32:37.781Z,27.38
2022-09-11T21:35:07.558Z,27.48
2022-09-11T21:37:36.869Z,27.37
2022-09-11T21:40:07.668Z,27.54
2022-09-11T21:42:37.121Z,27.51
2022-09-11T21:45:06.695Z,27.25
2022-09-11T21:47:36.035Z,27.08
2022-09-11T21:50:07.913Z,26.97
2022-09-11T21:52:37.533Z,26.77
2022-09-11T21:55:07.105Z,26.93
2022-09-11T21:57:36.379Z,27.05
2022-09-11T22:00:09.976Z,27.01
2022-09-11T22:02:39.031Z,27.04
2022-09-11T22:05:08.631Z,26.99
2022-09-11T22:07:38.399Z,26.78
2022-09-11T22:10:09.222Z,26.98
2022-09-11T22:12:38.555Z,26.91
2022-09-11T22:15:08.149Z,26.97
2022-09-11T22:17:37.563Z,26.91
2022-09-11T22:20:08.735Z,26.97
2022-09-11T22:22:39.970Z,26.96
2022-09-11T22:25:09.729Z,26.81
2022-09-11T22:27:41.080Z,26.80
2022-09-11T22:30:11.142Z,27.01
2022-09-11T22:32:40.958Z,26.98
2022-09-11T22:35:10.353Z,27.04
2022-09-11T22:37:39.811Z,26.89
2022-09-11T22:40:10.049Z,27.14
2022-09-11T22:42:39.472Z,26.83
2022-09-11T22:45:09.484Z,27.17
2022-09-11T22:47:38.695Z,27.29
2022-09-11T22:53:34.003Z,27.45
2022-09-11T22:56:07.351Z,27.26
2022-09-11T22:58:39.788Z,27.28
2022-09-11T23:01:16.769Z,27.40
2022-09-11T23:03:50.427Z,27.26
2022-09-11T23:06:38.999Z,27.29
2022-09-11T23:09:11.686Z,27.32
2022-09-11T23:11:42.345Z,27.43
2022-09-11T23:14:14.341Z,27.39
2022-09-11T23:16:44.140Z,27.54
2022-09-11T23:19:16.129Z,27.29
2022-09-11T23:21:45.816Z,27.38
2022-09-11T23:24:15.652Z,27.46
2022-09-11T23:26:46.698Z,27.41
2022-09-11T23:29:16.396Z,27.34
2022-09-11T23:31:46.315Z,27.21
2022-09-11T23:34:17.800Z,27.38
2022-09-11T23:36:47.191Z,27.37
2022-09-11T23:39:16.756Z,27.40
2022-09-11T23:41:45.751Z,27.30
2022-09-11T23:44:16.128Z,27.06
2022-09-11T23:46:45.743Z,27.15
2022-09-11T23:49:16.636Z,27.26
2022-09-11T23:51:46.161Z,27.33
2022-09-11T23:54:15.336Z,26.96
2022-09-11T23:56:45.126Z,27.18
